Terminal Aerodrome Forecast
Issued by NWS Shreveport, LA

Home | Current Version | Previous Version | Text Only | Print | Product List | Glossary On
Versions: 1 2 3 4 5 6 7 8 9 10 11 12 13 14 15 16 17 18 19
000
FTUS44 KSHV 230600 AAA
TAFGGG
TAF AMD
KGGG 230650Z 2307/2406 00000KT 5SM -RA BR FEW007 BKN045 OVC080
      TEMPO 2307/2309 2SM BR BKN007 OVC045
     FM230900 15007KT 6SM -RA BR OVC007
      TEMPO 2310/2313 3SM BR OVC004
     FM231600 21011KT P6SM BKN015
     FM231800 22016G23KT P6SM SCT035
     FM240000 26020G21KT P6SM SKC=

USA.gov is the U.S. government's official web portal to all federal, state and local government web resources and services.